createdAt,value
2019-05-19T00:01:36.244Z,60.60
2019-05-19T00:04:10.052Z,64.30
2019-05-19T00:06:40.334Z,67.70
2019-05-19T00:09:10.379Z,63.07
2019-05-19T00:11:40.466Z,78.97
2019-05-19T00:14:10.879Z,74.07
2019-05-19T00:16:40.980Z,78.57
2019-05-19T00:19:25.892Z,76.27
2019-05-19T00:21:44.623Z,73.67
2019-05-19T00:24:14.753Z,70.80
2019-05-19T00:26:44.875Z,76.87
2019-05-19T00:29:14.936Z,79.97
2019-05-19T00:31:45.161Z,74.57
2019-05-19T00:34:15.360Z,84.57
2019-05-19T00:36:45.547Z,77.53
2019-05-19T00:39:15.719Z,84.87
2019-05-19T00:41:45.870Z,74.10
2019-05-19T00:44:17.307Z,76.37
2019-05-19T00:46:47.705Z,81.73
2019-05-19T00:49:17.922Z,77.30
2019-05-19T00:51:48.219Z,84.23
2019-05-19T00:54:18.837Z,77.77
2019-05-19T00:56:50.211Z,82.63
2019-05-19T00:59:24.531Z,79.30
2019-05-19T01:01:54.660Z,82.87
2019-05-19T01:04:24.810Z,81.13
2019-05-19T01:06:54.947Z,76.97
2019-05-19T01:09:26.151Z,78.67
2019-05-19T01:11:57.639Z,80.73
2019-05-19T01:14:30.556Z,82.00
2019-05-19T01:17:00.660Z,91.70
2019-05-19T01:19:30.961Z,82.57
2019-05-19T01:22:02.018Z,80.73
2019-05-19T01:24:32.082Z,81.63
2019-05-19T01:27:02.310Z,85.60
2019-05-19T01:29:32.522Z,86.77
2019-05-19T01:32:02.832Z,87.70
2019-05-19T01:34:32.968Z,89.70
2019-05-19T01:37:05.194Z,83.67
2019-05-19T01:39:35.349Z,79.23
2019-05-19T01:42:05.497Z,83.43
2019-05-19T01:44:38.992Z,87.90
2019-05-19T01:47:09.165Z,85.17
2019-05-19T01:49:39.209Z,92.80
2019-05-19T01:52:09.388Z,91.80
2019-05-19T01:54:39.428Z,90.77
2019-05-19T01:57:09.572Z,88.07
2019-05-19T01:59:39.631Z,92.87
2019-05-19T02:02:10.434Z,84.57
2019-05-19T02:04:40.668Z,85.03
2019-05-19T02:07:10.835Z,85.93
2019-05-19T02:09:40.870Z,87.57
2019-05-19T02:12:11.154Z,88.80
2019-05-19T02:14:41.230Z,91.53
2019-05-19T02:17:12.399Z,87.20
2019-05-19T02:19:42.579Z,87.67
2019-05-19T02:22:12.709Z,88.23
2019-05-19T02:24:42.789Z,92.50
2019-05-19T02:27:12.976Z,88.53
2019-05-19T02:29:43.066Z,83.20
2019-05-19T02:32:14.135Z,83.07
2019-05-19T02:34:46.121Z,86.90
2019-05-19T02:37:16.940Z,86.50
2019-05-19T02:39:47.096Z,92.53
2019-05-19T02:42:19.358Z,92.63
2019-05-19T02:44:50.604Z,85.90
2019-05-19T02:47:23.079Z,92.33
2019-05-19T02:49:55.091Z,87.07
2019-05-19T02:52:28.276Z,90.80
2019-05-19T02:55:00.353Z,93.97
2019-05-19T02:57:32.198Z,89.87
2019-05-19T03:00:02.770Z,95.00
2019-05-19T03:02:33.468Z,92.70
2019-05-19T03:05:04.190Z,90.53
2019-05-19T03:07:34.879Z,95.40
2019-05-19T03:10:05.303Z,102.30
2019-05-19T03:12:35.473Z,102.23
2019-05-19T03:15:08.466Z,97.83
2019-05-19T03:17:38.623Z,108.53
2019-05-19T03:20:08.743Z,107.77
2019-05-19T03:22:40.438Z,107.50
2019-05-19T03:25:11.101Z,100.67
2019-05-19T03:27:41.271Z,101.77
2019-05-19T03:30:32.444Z,110.73
2019-05-19T03:33:04.045Z,104.07
2019-05-19T03:35:34.296Z,109.87
2019-05-19T03:38:04.516Z,96.93
2019-05-19T03:40:34.727Z,102.60
2019-05-19T03:43:05.160Z,114.43
2019-05-19T03:45:35.391Z,109.93
2019-05-19T03:48:08.019Z,103.37
2019-05-19T03:50:38.158Z,101.77
2019-05-19T03:53:08.259Z,102.10
2019-05-19T03:55:38.816Z,102.97
2019-05-19T03:58:09.304Z,115.07
2019-05-19T04:00:39.464Z,112.20
2019-05-19T04:03:09.640Z,108.73
2019-05-19T04:05:39.782Z,99.30
2019-05-19T04:08:09.956Z,111.73
2019-05-19T04:10:50.126Z,98.87
2019-05-19T04:13:20.208Z,94.77
2019-05-19T04:15:50.452Z,101.93
2019-05-19T04:18:20.612Z,94.97
2019-05-19T04:20:50.788Z,97.17
2019-05-19T04:23:41.611Z,95.03
2019-05-19T04:26:11.740Z,95.43
2019-05-19T04:28:43.598Z,89.00
2019-05-19T04:31:13.732Z,87.80
2019-05-19T04:33:43.841Z,94.93
2019-05-19T04:36:13.962Z,89.80
2019-05-19T04:38:44.066Z,101.30
2019-05-19T04:41:14.131Z,92.03
2019-05-19T04:43:44.455Z,92.97
2019-05-19T04:46:14.617Z,95.93
2019-05-19T04:48:44.877Z,97.63
2019-05-19T04:51:15.697Z,89.57
2019-05-19T04:53:45.885Z,92.57
2019-05-19T04:56:19.737Z,96.30
2019-05-19T04:58:48.822Z,97.10
2019-05-19T05:01:18.877Z,93.77
2019-05-19T05:03:49.075Z,90.63
2019-05-19T05:06:19.998Z,95.60
2019-05-19T05:08:50.190Z,84.70
2019-05-19T05:11:20.513Z,93.37
2019-05-19T05:13:50.723Z,90.87
2019-05-19T05:16:23.964Z,80.20
2019-05-19T05:18:54.585Z,90.83
2019-05-19T05:21:24.738Z,86.37
2019-05-19T05:23:54.953Z,93.10
2019-05-19T05:26:26.578Z,89.80
2019-05-19T05:28:56.770Z,84.53
2019-05-19T05:31:26.923Z,88.77
2019-05-19T05:33:57.122Z,86.37
2019-05-19T05:36:27.814Z,83.63
2019-05-19T05:38:58.306Z,87.97
2019-05-19T05:41:28.603Z,79.80
2019-05-19T05:43:59.380Z,87.63
2019-05-19T05:46:29.505Z,85.00
2019-05-19T05:48:59.769Z,87.70
2019-05-19T05:51:29.811Z,91.03
2019-05-19T05:54:01.058Z,82.63
2019-05-19T05:56:31.097Z,81.30
2019-05-19T05:59:03.110Z,78.63
2019-05-19T06:01:35.839Z,82.57
2019-05-19T06:04:06.046Z,80.43
2019-05-19T06:06:36.118Z,76.83
2019-05-19T06:09:07.382Z,74.47
2019-05-19T06:11:37.474Z,81.80
2019-05-19T06:14:07.645Z,80.87
2019-05-19T06:16:37.781Z,78.00
2019-05-19T06:19:07.950Z,82.63
2019-05-19T06:21:38.038Z,81.00
2019-05-19T06:24:08.216Z,79.33
2019-05-19T06:26:38.275Z,81.63
2019-05-19T06:29:10.214Z,84.30
2019-05-19T06:31:40.481Z,81.60
2019-05-19T06:34:10.720Z,82.03
2019-05-19T06:36:40.878Z,84.43
2019-05-19T06:39:11.146Z,81.33
2019-05-19T06:41:41.340Z,81.20
2019-05-19T06:44:11.924Z,86.40
2019-05-19T06:46:42.164Z,85.63
2019-05-19T06:49:12.406Z,82.43
2019-05-19T06:51:43.034Z,81.90
2019-05-19T06:54:13.332Z,77.63
2019-05-19T06:56:45.004Z,82.37
2019-05-19T06:59:15.197Z,80.33
2019-05-19T07:01:45.404Z,79.20
2019-05-19T07:04:15.784Z,80.63
2019-05-19T07:06:49.869Z,77.77
2019-05-19T07:09:20.045Z,83.37
2019-05-19T07:11:52.978Z,75.60
2019-05-19T07:14:23.190Z,81.70
2019-05-19T07:16:58.799Z,82.33
2019-05-19T07:19:30.464Z,80.00
2019-05-19T07:22:00.840Z,84.03
2019-05-19T07:24:30.975Z,79.57
2019-05-19T07:27:01.143Z,78.33
2019-05-19T07:29:34.354Z,75.37
2019-05-19T07:32:04.541Z,83.27
2019-05-19T07:34:36.109Z,82.43
2019-05-19T07:37:06.281Z,78.47
2019-05-19T07:39:36.644Z,78.53
2019-05-19T07:42:10.095Z,78.73
2019-05-19T07:44:40.278Z,79.57
2019-05-19T07:47:10.509Z,78.67
2019-05-19T07:49:43.161Z,78.10
2019-05-19T07:52:13.325Z,81.67
2019-05-19T07:54:43.735Z,82.33
2019-05-19T07:57:14.021Z,80.07
2019-05-19T07:59:45.475Z,78.20
2019-05-19T08:02:15.653Z,80.17
2019-05-19T08:04:45.858Z,73.17
2019-05-19T08:07:16.091Z,76.03
2019-05-19T08:09:46.254Z,68.60
2019-05-19T08:12:16.563Z,67.27
2019-05-19T08:14:46.925Z,75.23
2019-05-19T08:17:17.170Z,79.13
2019-05-19T08:19:49.516Z,81.60
2019-05-19T08:22:19.734Z,83.27
2019-05-19T08:24:49.873Z,82.40
2019-05-19T08:27:20.023Z,81.53
2019-05-19T08:29:50.306Z,74.63
2019-05-19T08:32:23.154Z,71.30
2019-05-19T08:34:53.667Z,73.70
2019-05-19T08:37:23.924Z,69.47
2019-05-19T08:39:54.084Z,68.17
2019-05-19T08:42:25.865Z,69.87
2019-05-19T08:44:56.016Z,66.87
2019-05-19T08:47:26.569Z,69.53
2019-05-19T08:49:56.768Z,68.80
2019-05-19T08:52:27.321Z,70.83
2019-05-19T08:54:57.694Z,69.63
2019-05-19T08:57:28.190Z,70.50
2019-05-19T08:59:58.375Z,72.73
2019-05-19T09:02:28.624Z,71.23
2019-05-19T09:04:58.827Z,71.60
2019-05-19T09:07:29.004Z,72.83
2019-05-19T09:10:02.114Z,70.97
2019-05-19T09:12:33.938Z,67.20
2019-05-19T09:15:04.862Z,67.40
2019-05-19T09:17:35.610Z,69.43
2019-05-19T09:20:05.871Z,64.17
2019-05-19T09:22:38.328Z,65.60
2019-05-19T09:25:10.186Z,66.70
2019-05-19T09:27:40.588Z,64.23
2019-05-19T09:30:11.485Z,62.93
2019-05-19T09:32:42.467Z,64.73
2019-05-19T09:35:12.867Z,61.33
2019-05-19T09:37:43.067Z,65.83
2019-05-19T09:40:14.615Z,59.20
2019-05-19T09:42:48.483Z,57.93
2019-05-19T09:45:19.989Z,58.63
2019-05-19T09:47:50.173Z,57.10
2019-05-19T09:50:20.441Z,59.30
2019-05-19T09:52:53.407Z,58.60
2019-05-19T09:55:23.610Z,55.03
2019-05-19T09:57:53.706Z,56.23
2019-05-19T10:00:24.299Z,53.97
2019-05-19T10:02:56.208Z,54.57
2019-05-19T10:05:26.418Z,54.60
2019-05-19T10:07:56.471Z,58.03
2019-05-19T10:11:01.288Z,56.00
2019-05-19T10:13:31.658Z,55.17
2019-05-19T10:16:04.525Z,48.83
2019-05-19T10:18:34.848Z,50.63
2019-05-19T10:21:05.166Z,50.30
2019-05-19T10:23:35.327Z,51.57
2019-05-19T10:26:05.668Z,50.50
2019-05-19T10:28:35.867Z,46.73
2019-05-19T10:31:06.386Z,49.53
2019-05-19T10:33:37.375Z,50.10
2019-05-19T10:36:07.597Z,45.73
2019-05-19T10:38:41.406Z,47.23
2019-05-19T10:41:11.650Z,48.53
2019-05-19T10:43:41.746Z,46.70
2019-05-19T10:46:14.450Z,44.60
2019-05-19T10:48:44.727Z,43.20
2019-05-19T10:51:14.954Z,45.20
2019-05-19T10:53:46.967Z,45.13
2019-05-19T10:56:19.123Z,48.10
2019-05-19T10:58:49.626Z,44.43
2019-05-19T11:01:20.159Z,42.80
2019-05-19T11:03:50.362Z,44.27
2019-05-19T11:06:20.611Z,42.97
2019-05-19T11:08:50.690Z,43.77
2019-05-19T11:11:20.869Z,44.20
2019-05-19T11:13:51.486Z,43.37
2019-05-19T11:16:22.387Z,43.70
2019-05-19T11:18:52.541Z,44.07
2019-05-19T11:21:22.724Z,44.63
2019-05-19T11:23:55.894Z,39.73
2019-05-19T11:26:26.023Z,41.33
2019-05-19T11:28:56.458Z,38.00
2019-05-19T11:31:27.493Z,37.63
2019-05-19T11:33:57.631Z,39.80
2019-05-19T11:36:28.030Z,37.03
2019-05-19T11:38:59.591Z,35.03
2019-05-19T11:41:29.772Z,37.07
2019-05-19T11:44:02.355Z,33.20
2019-05-19T11:46:32.527Z,36.63
2019-05-19T11:49:04.161Z,36.63
2019-05-19T11:51:34.998Z,34.30
2019-05-19T11:54:05.369Z,36.27
2019-05-19T11:56:45.481Z,35.07
2019-05-19T11:59:15.879Z,35.03
2019-05-19T12:01:46.342Z,36.23
2019-05-19T12:04:16.429Z,37.43
2019-05-19T12:06:47.180Z,39.53
2019-05-19T12:09:18.144Z,37.90
2019-05-19T12:11:51.598Z,37.43
2019-05-19T12:14:23.302Z,39.33
2019-05-19T12:16:55.841Z,39.60
2019-05-19T12:19:26.141Z,40.83
2019-05-19T12:21:56.279Z,38.93
2019-05-19T12:24:26.335Z,38.33
2019-05-19T12:26:58.976Z,37.77
2019-05-19T12:29:28.685Z,38.90
2019-05-19T12:31:58.827Z,41.83
2019-05-19T12:34:28.877Z,37.97
2019-05-19T12:36:58.968Z,40.23
2019-05-19T12:39:30.647Z,41.47
2019-05-19T12:42:00.845Z,39.73
2019-05-19T12:44:30.986Z,39.10
2019-05-19T12:47:01.705Z,43.07
2019-05-19T12:49:31.758Z,44.33
2019-05-19T12:52:02.053Z,44.03
2019-05-19T12:54:33.171Z,44.23
2019-05-19T12:57:03.383Z,42.87
2019-05-19T12:59:33.540Z,39.53
2019-05-19T13:02:03.714Z,39.80
2019-05-19T13:04:33.943Z,41.73
2019-05-19T13:07:04.330Z,45.20
2019-05-19T13:09:35.388Z,43.73
2019-05-19T13:12:05.843Z,41.97
2019-05-19T13:14:36.338Z,40.77
2019-05-19T13:17:08.865Z,42.87
2019-05-19T13:19:39.122Z,44.90
2019-05-19T13:22:11.379Z,46.23
2019-05-19T13:24:41.445Z,46.33
2019-05-19T13:27:11.573Z,42.73
2019-05-19T13:29:41.926Z,44.27
2019-05-19T13:32:12.000Z,41.50
2019-05-19T13:34:42.189Z,43.87
2019-05-19T13:37:12.390Z,38.30
2019-05-19T13:39:42.480Z,47.67
2019-05-19T13:42:12.772Z,41.43
2019-05-19T13:44:42.859Z,42.27
2019-05-19T13:47:13.015Z,41.90
2019-05-19T13:49:43.081Z,43.47
2019-05-19T13:52:13.249Z,45.43
2019-05-19T13:54:43.686Z,47.60
2019-05-19T13:57:14.106Z,46.92
2019-05-19T13:59:44.667Z,49.13
2019-05-19T14:02:15.628Z,54.07
2019-05-19T14:04:45.848Z,53.90
2019-05-19T14:07:16.214Z,52.97
2019-05-19T14:09:46.501Z,56.47
2019-05-19T14:12:18.310Z,56.70
2019-05-19T14:14:48.532Z,58.60
2019-05-19T14:17:18.714Z,53.30
2019-05-19T14:19:48.807Z,53.03
2019-05-19T14:22:19.109Z,54.10
2019-05-19T14:24:49.399Z,52.90
2019-05-19T14:27:29.295Z,45.73
2019-05-19T14:29:52.613Z,48.27
2019-05-19T14:32:23.740Z,42.33
2019-05-19T14:34:53.993Z,43.33
2019-05-19T14:37:24.394Z,42.73
2019-05-19T14:39:54.969Z,44.47
2019-05-19T14:42:46.515Z,47.83
2019-05-19T14:45:17.018Z,44.23
2019-05-19T14:47:47.481Z,44.60
2019-05-19T14:50:18.528Z,48.37
2019-05-19T14:52:48.726Z,49.23
2019-05-19T14:55:18.974Z,48.23
2019-05-19T14:57:49.531Z,48.27
2019-05-19T15:00:21.080Z,52.97
2019-05-19T15:02:51.279Z,50.67
2019-05-19T15:05:21.375Z,53.70
2019-05-19T15:07:51.541Z,54.87
2019-05-19T15:10:21.616Z,54.90
2019-05-19T15:12:53.786Z,53.83
2019-05-19T15:15:23.937Z,54.50
2019-05-19T15:17:54.286Z,53.40
2019-05-19T15:20:24.475Z,51.37
2019-05-19T15:22:54.833Z,55.93
2019-05-19T15:25:25.116Z,57.47
2019-05-19T15:28:00.192Z,57.00
2019-05-19T15:30:27.361Z,60.10
2019-05-19T15:32:57.544Z,66.17
2019-05-19T15:35:27.892Z,67.23
2019-05-19T15:37:57.990Z,69.20
2019-05-19T15:40:28.173Z,70.87
2019-05-19T15:42:58.362Z,74.10
2019-05-19T15:45:28.553Z,76.07
2019-05-19T15:47:58.761Z,76.23
2019-05-19T15:50:28.926Z,80.23
2019-05-19T15:52:59.161Z,48.40
2019-05-19T15:55:29.482Z,20.27
2019-05-19T15:58:14.206Z,13.30
2019-05-19T16:00:31.642Z,12.17
2019-05-19T16:03:02.255Z,11.47
2019-05-19T16:05:32.404Z,9.90
2019-05-19T16:08:02.574Z,7.93
2019-05-19T16:10:32.630Z,8.80
2019-05-19T16:13:02.746Z,9.90
2019-05-19T16:15:32.852Z,11.30
2019-05-19T16:18:03.174Z,12.23
2019-05-19T16:20:33.329Z,12.17
2019-05-19T16:23:03.523Z,12.00
2019-05-19T16:25:33.699Z,12.90
2019-05-19T16:28:03.951Z,12.17
2019-05-19T16:30:34.081Z,12.40
2019-05-19T16:33:04.285Z,12.20
2019-05-19T16:35:34.426Z,12.97
2019-05-19T16:38:04.849Z,12.20
2019-05-19T16:40:35.083Z,13.33
2019-05-19T16:43:05.263Z,14.67
2019-05-19T16:45:35.385Z,18.07
2019-05-19T16:48:05.780Z,24.43
2019-05-19T16:50:35.863Z,34.00
2019-05-19T16:53:06.103Z,50.43
2019-05-19T16:55:36.345Z,70.83
2019-05-19T16:58:20.139Z,84.73
2019-05-19T17:00:38.668Z,95.37
2019-05-19T17:03:08.823Z,96.10
2019-05-19T17:05:38.895Z,99.57
2019-05-19T17:08:09.065Z,110.10
2019-05-19T17:10:39.412Z,116.83
2019-05-19T17:13:09.646Z,110.27
2019-05-19T17:15:39.842Z,123.47
2019-05-19T17:18:09.938Z,130.50
2019-05-19T17:20:40.205Z,121.47
2019-05-19T17:23:10.391Z,117.17
2019-05-19T17:25:40.504Z,122.90
2019-05-19T17:28:10.710Z,128.90
2019-05-19T17:30:40.820Z,127.27
2019-05-19T17:33:11.282Z,126.43
2019-05-19T17:35:41.762Z,138.60
2019-05-19T17:38:12.411Z,128.83
2019-05-19T17:40:42.587Z,143.23
2019-05-19T17:43:12.776Z,149.60
2019-05-19T17:45:43.082Z,139.77
2019-05-19T17:48:25.720Z,141.23
2019-05-19T17:50:45.039Z,130.80
2019-05-19T17:53:15.197Z,126.53
2019-05-19T17:55:46.664Z,125.03
2019-05-19T17:58:17.131Z,121.10
2019-05-19T18:00:47.359Z,132.57
2019-05-19T18:03:17.659Z,118.57
2019-05-19T18:05:47.756Z,118.57
2019-05-19T18:08:17.954Z,117.03
2019-05-19T18:10:48.108Z,116.27
2019-05-19T18:13:18.322Z,112.27
2019-05-19T18:15:48.463Z,113.10
2019-05-19T18:18:18.733Z,112.07
2019-05-19T18:20:48.878Z,118.07
2019-05-19T18:23:19.033Z,112.13
2019-05-19T18:25:49.267Z,113.70
2019-05-19T18:28:19.442Z,116.17
2019-05-19T18:30:49.592Z,115.10
2019-05-19T18:33:19.729Z,114.87
2019-05-19T18:35:49.836Z,111.30
2019-05-19T18:38:20.077Z,126.83
2019-05-19T18:40:50.313Z,124.53
2019-05-19T18:43:20.595Z,120.50
2019-05-19T18:45:50.702Z,122.73
2019-05-19T18:48:23.287Z,129.57
2019-05-19T18:50:53.142Z,119.67
2019-05-19T18:53:23.511Z,125.93
2019-05-19T18:55:53.897Z,119.97
2019-05-19T18:58:24.081Z,128.63
2019-05-19T19:00:54.234Z,126.70
2019-05-19T19:03:24.447Z,128.80
2019-05-19T19:05:55.379Z,131.40
2019-05-19T19:08:25.684Z,141.77
2019-05-19T19:10:56.300Z,143.33
2019-05-19T19:13:26.519Z,139.13
2019-05-19T19:15:56.795Z,140.40
2019-05-19T19:18:27.006Z,136.90
2019-05-19T19:20:57.493Z,133.40
2019-05-19T19:23:27.829Z,143.37
2019-05-19T19:25:58.078Z,133.13
2019-05-19T19:28:28.455Z,129.43
2019-05-19T19:30:58.780Z,134.40
2019-05-19T19:33:30.702Z,125.53
2019-05-19T19:36:02.795Z,148.07
2019-05-19T19:38:33.054Z,149.27
2019-05-19T19:41:04.982Z,150.00
2019-05-19T19:43:35.220Z,153.13
2019-05-19T19:46:06.156Z,161.50
2019-05-19T19:48:36.740Z,172.93
2019-05-19T19:51:07.151Z,147.00
2019-05-19T19:53:38.033Z,164.87
2019-05-19T19:56:08.314Z,168.60
2019-05-19T19:58:38.899Z,174.17
2019-05-19T20:01:09.224Z,169.30
2019-05-19T20:03:40.625Z,160.07
2019-05-19T20:06:11.975Z,162.17
2019-05-19T20:08:42.153Z,166.10
2019-05-19T20:11:12.307Z,157.90
2019-05-19T20:13:42.582Z,173.50
2019-05-19T20:16:12.834Z,170.93
2019-05-19T20:18:43.847Z,156.23
2019-05-19T20:21:15.581Z,174.70
2019-05-19T20:23:45.935Z,178.23
2019-05-19T20:26:16.133Z,181.37
2019-05-19T20:28:46.580Z,187.17
2019-05-19T20:31:16.728Z,174.33
2019-05-19T20:33:46.973Z,169.70
2019-05-19T20:36:17.102Z,172.80
2019-05-19T20:38:47.327Z,168.97
2019-05-19T20:41:17.534Z,178.50
2019-05-19T20:43:47.857Z,165.83
2019-05-19T20:46:18.224Z,171.33
2019-05-19T20:48:48.508Z,166.00
2019-05-19T20:51:18.719Z,163.80
2019-05-19T20:53:49.020Z,168.13
2019-05-19T20:56:19.324Z,149.93
2019-05-19T20:58:49.573Z,150.93
2019-05-19T21:01:19.768Z,138.67
2019-05-19T21:03:50.460Z,138.60
2019-05-19T21:06:20.649Z,112.63
2019-05-19T21:08:50.895Z,104.03
2019-05-19T21:11:21.033Z,91.03
2019-05-19T21:13:51.411Z,87.87
2019-05-19T21:16:22.547Z,86.17
2019-05-19T21:18:52.726Z,86.03
2019-05-19T21:21:22.877Z,81.87
2019-05-19T21:23:53.046Z,84.17
2019-05-19T21:26:23.075Z,88.40
2019-05-19T21:28:53.155Z,82.40
2019-05-19T21:31:23.380Z,86.93
2019-05-19T21:33:53.625Z,88.03
2019-05-19T21:36:23.850Z,79.57
2019-05-19T21:38:54.034Z,88.57
2019-05-19T21:41:24.150Z,89.03
2019-05-19T21:43:54.656Z,94.50
2019-05-19T21:46:24.930Z,91.57
2019-05-19T21:48:55.233Z,93.77
2019-05-19T21:51:26.278Z,95.13
2019-05-19T21:53:56.383Z,99.80
2019-05-19T21:56:26.486Z,105.97
2019-05-19T21:58:56.625Z,98.57
2019-05-19T22:01:29.225Z,96.90
2019-05-19T22:03:59.324Z,100.80
2019-05-19T22:06:31.149Z,96.07
2019-05-19T22:09:01.323Z,100.10
2019-05-19T22:11:32.394Z,112.40
2019-05-19T22:14:02.701Z,120.77
2019-05-19T22:16:32.832Z,132.27
2019-05-19T22:19:03.094Z,129.73
2019-05-19T22:21:33.207Z,115.00
2019-05-19T22:24:03.403Z,125.10
2019-05-19T22:26:33.537Z,112.07
2019-05-19T22:29:03.733Z,122.23
2019-05-19T22:31:36.926Z,130.90
2019-05-19T22:34:05.884Z,132.37
2019-05-19T22:36:36.014Z,135.57
2019-05-19T22:39:07.161Z,150.40
2019-05-19T22:41:37.416Z,135.97
2019-05-19T22:44:07.633Z,153.93
2019-05-19T22:46:37.726Z,148.87
2019-05-19T22:49:08.741Z,183.60
2019-05-19T22:51:38.830Z,209.80
2019-05-19T22:54:09.010Z,216.77
2019-05-19T22:56:39.253Z,238.27
2019-05-19T22:59:19.216Z,231.90
2019-05-19T23:01:51.491Z,216.93
2019-05-19T23:04:13.304Z,197.67
2019-05-19T23:06:43.436Z,194.10
2019-05-19T23:09:13.666Z,212.37
2019-05-19T23:11:45.393Z,185.23
2019-05-19T23:14:15.696Z,207.93
2019-05-19T23:16:45.820Z,185.77
2019-05-19T23:19:15.965Z,215.83
2019-05-19T23:21:46.030Z,209.23
2019-05-19T23:24:16.132Z,198.57
2019-05-19T23:26:46.303Z,218.47
2019-05-19T23:29:16.474Z,176.23
2019-05-19T23:31:46.662Z,196.50
2019-05-19T23:34:16.756Z,177.40
2019-05-19T23:36:46.931Z,208.17
2019-05-19T23:39:17.219Z,187.20
2019-05-19T23:41:47.886Z,179.43
2019-05-19T23:44:18.022Z,179.80
2019-05-19T23:46:48.307Z,176.30
2019-05-19T23:49:18.564Z,218.03
2019-05-19T23:51:49.222Z,169.73
2019-05-19T23:54:19.366Z,195.73
2019-05-19T23:56:49.737Z,201.50
2019-05-19T23:59:19.838Z,165.83
